sensor_id;sensor_type;location;lat;lon;timestamp;P1;durP1;ratioP1;P2;durP2;ratioP2
38455;SDS011;24237;50.106;20.014;2023-05-14T00:01:09;19.85;;;9.15;;
38455;SDS011;24237;50.106;20.014;2023-05-14T00:03:34;18.50;;;9.18;;
38455;SDS011;24237;50.106;20.014;2023-05-14T00:06:01;18.15;;;9.57;;
38455;SDS011;24237;50.106;20.014;2023-05-14T00:08:27;18.10;;;9.80;;
38455;SDS011;24237;50.106;20.014;2023-05-14T00:10:53;19.13;;;9.93;;
38455;SDS011;24237;50.106;20.014;2023-05-14T00:13:18;17.30;;;9.20;;
38455;SDS011;24237;50.106;20.014;2023-05-14T00:15:44;14.40;;;9.50;;
38455;SDS011;24237;50.106;20.014;2023-05-14T00:18:10;16.52;;;9.90;;
38455;SDS011;24237;50.106;20.014;2023-05-14T00:20:36;17.80;;;9.60;;
38455;SDS011;24237;50.106;20.014;2023-05-14T00:23:01;17.27;;;9.38;;
38455;SDS011;24237;50.106;20.014;2023-05-14T00:25:27;17.33;;;9.00;;
38455;SDS011;24237;50.106;20.014;2023-05-14T00:27:53;17.50;;;8.52;;
38455;SDS011;24237;50.106;20.014;2023-05-14T00:30:18;19.92;;;8.82;;
38455;SDS011;24237;50.106;20.014;2023-05-14T00:32:44;18.10;;;9.77;;
38455;SDS011;24237;50.106;20.014;2023-05-14T00:35:09;19.50;;;8.90;;
38455;SDS011;24237;50.106;20.014;2023-05-14T00:37:35;18.23;;;9.40;;
38455;SDS011;24237;50.106;20.014;2023-05-14T00:40:01;20.23;;;9.38;;
38455;SDS011;24237;50.106;20.014;2023-05-14T00:42:27;15.80;;;9.10;;
38455;SDS011;24237;50.106;20.014;2023-05-14T00:44:53;17.27;;;9.13;;
38455;SDS011;24237;50.106;20.014;2023-05-14T00:47:18;15.93;;;9.43;;
38455;SDS011;24237;50.106;20.014;2023-05-14T00:49:44;14.32;;;8.45;;
38455;SDS011;24237;50.106;20.014;2023-05-14T00:52:10;14.40;;;8.65;;
38455;SDS011;24237;50.106;20.014;2023-05-14T00:54:36;20.08;;;9.05;;
38455;SDS011;24237;50.106;20.014;2023-05-14T00:57:02;17.77;;;9.18;;
38455;SDS011;24237;50.106;20.014;2023-05-14T00:59:30;13.65;;;8.80;;
38455;SDS011;24237;50.106;20.014;2023-05-14T01:01:56;19.85;;;9.70;;
38455;SDS011;24237;50.106;20.014;2023-05-14T01:04:22;16.83;;;8.70;;
38455;SDS011;24237;50.106;20.014;2023-05-14T01:06:53;13.38;;;8.48;;
38455;SDS011;24237;50.106;20.014;2023-05-14T01:15:15;16.60;;;8.57;;
38455;SDS011;24237;50.106;20.014;2023-05-14T01:17:51;13.38;;;8.27;;
38455;SDS011;24237;50.106;20.014;2023-05-14T01:20:20;16.58;;;8.68;;
38455;SDS011;24237;50.106;20.014;2023-05-14T01:22:46;14.48;;;8.38;;
38455;SDS011;24237;50.106;20.014;2023-05-14T01:25:12;17.88;;;8.93;;
38455;SDS011;24237;50.106;20.014;2023-05-14T01:30:31;15.48;;;9.23;;
38455;SDS011;24237;50.106;20.014;2023-05-14T01:33:01;16.85;;;8.82;;
38455;SDS011;24237;50.106;20.014;2023-05-14T01:35:30;14.38;;;8.82;;
38455;SDS011;24237;50.106;20.014;2023-05-14T01:37:56;17.35;;;9.60;;
38455;SDS011;24237;50.106;20.014;2023-05-14T01:40:27;15.48;;;9.00;;
38455;SDS011;24237;50.106;20.014;2023-05-14T01:42:54;17.48;;;8.85;;
38455;SDS011;24237;50.106;20.014;2023-05-14T01:45:20;14.93;;;9.05;;
38455;SDS011;24237;50.106;20.014;2023-05-14T01:47:47;15.27;;;8.20;;
38455;SDS011;24237;50.106;20.014;2023-05-14T01:50:13;15.10;;;8.38;;
38455;SDS011;24237;50.106;20.014;2023-05-14T01:52:39;14.18;;;7.88;;
38455;SDS011;24237;50.106;20.014;2023-05-14T01:55:04;14.43;;;8.20;;
38455;SDS011;24237;50.106;20.014;2023-05-14T01:57:30;15.48;;;9.00;;
38455;SDS011;24237;50.106;20.014;2023-05-14T01:59:56;13.77;;;8.70;;
38455;SDS011;24237;50.106;20.014;2023-05-14T02:02:22;12.77;;;8.02;;
38455;SDS011;24237;50.106;20.014;2023-05-14T02:04:47;15.50;;;8.63;;
38455;SDS011;24237;50.106;20.014;2023-05-14T02:07:13;14.38;;;8.10;;
38455;SDS011;24237;50.106;20.014;2023-05-14T02:09:38;16.05;;;8.60;;
38455;SDS011;24237;50.106;20.014;2023-05-14T02:12:05;13.85;;;8.50;;
38455;SDS011;24237;50.106;20.014;2023-05-14T02:14:31;18.08;;;8.60;;
38455;SDS011;24237;50.106;20.014;2023-05-14T02:16:57;15.10;;;9.05;;
38455;SDS011;24237;50.106;20.014;2023-05-14T02:19:23;15.23;;;8.48;;
38455;SDS011;24237;50.106;20.014;2023-05-14T02:21:48;16.77;;;8.85;;
38455;SDS011;24237;50.106;20.014;2023-05-14T02:24:14;18.67;;;8.77;;
38455;SDS011;24237;50.106;20.014;2023-05-14T02:26:39;13.18;;;8.15;;
38455;SDS011;24237;50.106;20.014;2023-05-14T02:29:06;13.27;;;8.68;;
38455;SDS011;24237;50.106;20.014;2023-05-14T02:31:31;16.40;;;8.32;;
38455;SDS011;24237;50.106;20.014;2023-05-14T02:33:57;15.82;;;8.98;;
38455;SDS011;24237;50.106;20.014;2023-05-14T02:36:23;14.02;;;8.80;;
38455;SDS011;24237;50.106;20.014;2023-05-14T02:38:48;15.52;;;9.05;;
38455;SDS011;24237;50.106;20.014;2023-05-14T02:41:14;12.73;;;7.88;;
38455;SDS011;24237;50.106;20.014;2023-05-14T02:43:40;13.57;;;8.07;;
38455;SDS011;24237;50.106;20.014;2023-05-14T02:46:05;17.58;;;9.57;;
38455;SDS011;24237;50.106;20.014;2023-05-14T02:48:31;15.55;;;8.90;;
38455;SDS011;24237;50.106;20.014;2023-05-14T02:50:56;18.80;;;9.57;;
38455;SDS011;24237;50.106;20.014;2023-05-14T02:53:22;14.38;;;8.10;;
38455;SDS011;24237;50.106;20.014;2023-05-14T02:55:47;16.15;;;8.15;;
38455;SDS011;24237;50.106;20.014;2023-05-14T02:58:13;12.73;;;7.68;;
38455;SDS011;24237;50.106;20.014;2023-05-14T03:00:39;13.75;;;7.65;;
38455;SDS011;24237;50.106;20.014;2023-05-14T03:03:05;13.02;;;8.27;;
38455;SDS011;24237;50.106;20.014;2023-05-14T03:05:30;12.50;;;7.55;;
38455;SDS011;24237;50.106;20.014;2023-05-14T03:07:56;15.43;;;7.30;;
38455;SDS011;24237;50.106;20.014;2023-05-14T03:10:22;14.35;;;7.43;;
38455;SDS011;24237;50.106;20.014;2023-05-14T03:12:47;11.98;;;7.45;;
38455;SDS011;24237;50.106;20.014;2023-05-14T03:15:13;13.27;;;6.97;;
38455;SDS011;24237;50.106;20.014;2023-05-14T03:17:39;12.95;;;7.43;;
38455;SDS011;24237;50.106;20.014;2023-05-14T03:20:04;11.77;;;7.75;;
38455;SDS011;24237;50.106;20.014;2023-05-14T03:22:30;13.60;;;7.57;;
38455;SDS011;24237;50.106;20.014;2023-05-14T03:24:56;17.58;;;7.93;;
38455;SDS011;24237;50.106;20.014;2023-05-14T03:27:22;11.63;;;7.55;;
38455;SDS011;24237;50.106;20.014;2023-05-14T03:29:47;13.10;;;8.40;;
38455;SDS011;24237;50.106;20.014;2023-05-14T03:32:13;12.82;;;7.65;;
38455;SDS011;24237;50.106;20.014;2023-05-14T03:34:39;14.27;;;8.88;;
38455;SDS011;24237;50.106;20.014;2023-05-14T03:37:04;13.07;;;7.70;;
38455;SDS011;24237;50.106;20.014;2023-05-14T03:39:30;16.58;;;8.25;;
38455;SDS011;24237;50.106;20.014;2023-05-14T03:41:56;20.52;;;9.10;;
38455;SDS011;24237;50.106;20.014;2023-05-14T03:44:22;12.77;;;8.25;;
38455;SDS011;24237;50.106;20.014;2023-05-14T03:46:49;15.52;;;7.50;;
38455;SDS011;24237;50.106;20.014;2023-05-14T03:49:14;15.82;;;7.97;;
38455;SDS011;24237;50.106;20.014;2023-05-14T03:51:40;19.23;;;8.10;;
38455;SDS011;24237;50.106;20.014;2023-05-14T03:54:05;10.85;;;7.30;;
38455;SDS011;24237;50.106;20.014;2023-05-14T03:56:31;13.48;;;7.35;;
38455;SDS011;24237;50.106;20.014;2023-05-14T03:58:57;12.13;;;7.68;;
38455;SDS011;24237;50.106;20.014;2023-05-14T04:01:22;13.93;;;7.72;;
38455;SDS011;24237;50.106;20.014;2023-05-14T04:03:48;13.18;;;7.18;;
38455;SDS011;24237;50.106;20.014;2023-05-14T04:06:13;11.35;;;7.43;;
38455;SDS011;24237;50.106;20.014;2023-05-14T04:08:40;14.95;;;8.50;;
38455;SDS011;24237;50.106;20.014;2023-05-14T04:11:05;16.88;;;8.38;;
38455;SDS011;24237;50.106;20.014;2023-05-14T04:13:31;11.88;;;7.90;;
38455;SDS011;24237;50.106;20.014;2023-05-14T04:15:56;13.48;;;7.70;;
38455;SDS011;24237;50.106;20.014;2023-05-14T04:18:22;12.27;;;7.90;;
38455;SDS011;24237;50.106;20.014;2023-05-14T04:20:47;14.98;;;8.68;;
38455;SDS011;24237;50.106;20.014;2023-05-14T04:23:13;13.05;;;8.05;;
38455;SDS011;24237;50.106;20.014;2023-05-14T04:25:39;13.20;;;8.10;;
38455;SDS011;24237;50.106;20.014;2023-05-14T04:28:04;13.93;;;7.88;;
38455;SDS011;24237;50.106;20.014;2023-05-14T04:30:30;14.35;;;8.18;;
38455;SDS011;24237;50.106;20.014;2023-05-14T04:32:55;15.60;;;8.15;;
38455;SDS011;24237;50.106;20.014;2023-05-14T04:35:21;13.27;;;8.23;;
38455;SDS011;24237;50.106;20.014;2023-05-14T04:37:47;16.23;;;7.97;;
38455;SDS011;24237;50.106;20.014;2023-05-14T04:40:13;11.43;;;8.05;;
38455;SDS011;24237;50.106;20.014;2023-05-14T04:42:40;12.98;;;7.18;;
38455;SDS011;24237;50.106;20.014;2023-05-14T04:45:06;12.18;;;6.75;;
38455;SDS011;24237;50.106;20.014;2023-05-14T04:47:32;10.88;;;6.47;;
38455;SDS011;24237;50.106;20.014;2023-05-14T04:49:58;9.82;;;6.30;;
38455;SDS011;24237;50.106;20.014;2023-05-14T04:52:24;12.15;;;6.00;;
38455;SDS011;24237;50.106;20.014;2023-05-14T04:54:50;11.57;;;5.93;;
38455;SDS011;24237;50.106;20.014;2023-05-14T04:57:16;10.05;;;6.38;;
38455;SDS011;24237;50.106;20.014;2023-05-14T04:59:41;10.88;;;6.00;;
38455;SDS011;24237;50.106;20.014;2023-05-14T05:02:07;13.15;;;6.05;;
38455;SDS011;24237;50.106;20.014;2023-05-14T05:04:33;13.07;;;6.00;;
38455;SDS011;24237;50.106;20.014;2023-05-14T05:06:58;7.78;;;5.65;;
38455;SDS011;24237;50.106;20.014;2023-05-14T05:09:24;11.52;;;5.95;;
38455;SDS011;24237;50.106;20.014;2023-05-14T05:11:49;11.52;;;5.90;;
38455;SDS011;24237;50.106;20.014;2023-05-14T05:14:15;8.43;;;5.78;;
38455;SDS011;24237;50.106;20.014;2023-05-14T05:16:41;11.73;;;6.97;;
38455;SDS011;24237;50.106;20.014;2023-05-14T05:19:06;14.82;;;6.70;;
38455;SDS011;24237;50.106;20.014;2023-05-14T05:21:32;10.73;;;6.70;;
38455;SDS011;24237;50.106;20.014;2023-05-14T05:23:58;16.67;;;6.40;;
38455;SDS011;24237;50.106;20.014;2023-05-14T05:26:25;13.02;;;7.45;;
38455;SDS011;24237;50.106;20.014;2023-05-14T05:28:51;15.40;;;7.60;;
38455;SDS011;24237;50.106;20.014;2023-05-14T05:31:16;16.05;;;7.97;;
38455;SDS011;24237;50.106;20.014;2023-05-14T05:33:42;14.60;;;8.23;;
38455;SDS011;24237;50.106;20.014;2023-05-14T05:36:08;12.73;;;7.70;;
38455;SDS011;24237;50.106;20.014;2023-05-14T05:38:34;12.20;;;7.93;;
38455;SDS011;24237;50.106;20.014;2023-05-14T05:40:59;15.27;;;7.53;;
38455;SDS011;24237;50.106;20.014;2023-05-14T05:43:25;12.43;;;7.35;;
38455;SDS011;24237;50.106;20.014;2023-05-14T05:45:52;11.80;;;6.70;;
38455;SDS011;24237;50.106;20.014;2023-05-14T05:48:18;11.55;;;7.10;;
38455;SDS011;24237;50.106;20.014;2023-05-14T05:50:45;17.23;;;7.35;;
38455;SDS011;24237;50.106;20.014;2023-05-14T05:53:12;12.60;;;8.20;;
38455;SDS011;24237;50.106;20.014;2023-05-14T05:55:37;13.38;;;7.40;;
38455;SDS011;24237;50.106;20.014;2023-05-14T05:58:03;11.77;;;6.82;;
38455;SDS011;24237;50.106;20.014;2023-05-14T06:00:28;12.85;;;7.30;;
38455;SDS011;24237;50.106;20.014;2023-05-14T06:02:55;12.45;;;6.80;;
38455;SDS011;24237;50.106;20.014;2023-05-14T06:05:20;10.23;;;6.57;;
38455;SDS011;24237;50.106;20.014;2023-05-14T06:07:46;12.00;;;6.25;;
38455;SDS011;24237;50.106;20.014;2023-05-14T06:10:11;9.93;;;6.13;;
38455;SDS011;24237;50.106;20.014;2023-05-14T06:12:37;10.55;;;5.88;;
38455;SDS011;24237;50.106;20.014;2023-05-14T06:15:03;10.60;;;6.50;;
38455;SDS011;24237;50.106;20.014;2023-05-14T06:17:28;11.18;;;6.60;;
38455;SDS011;24237;50.106;20.014;2023-05-14T06:19:54;13.38;;;6.82;;
38455;SDS011;24237;50.106;20.014;2023-05-14T06:22:20;11.85;;;7.28;;
38455;SDS011;24237;50.106;20.014;2023-05-14T06:24:46;12.23;;;6.82;;
38455;SDS011;24237;50.106;20.014;2023-05-14T06:27:12;10.68;;;6.65;;
38455;SDS011;24237;50.106;20.014;2023-05-14T06:29:37;10.73;;;6.85;;
38455;SDS011;24237;50.106;20.014;2023-05-14T06:32:03;13.77;;;7.20;;
38455;SDS011;24237;50.106;20.014;2023-05-14T06:34:29;17.42;;;6.45;;
38455;SDS011;24237;50.106;20.014;2023-05-14T06:36:55;13.40;;;6.93;;
38455;SDS011;24237;50.106;20.014;2023-05-14T06:39:21;12.70;;;7.53;;
38455;SDS011;24237;50.106;20.014;2023-05-14T06:41:48;10.43;;;6.67;;
38455;SDS011;24237;50.106;20.014;2023-05-14T06:44:14;12.38;;;6.93;;
38455;SDS011;24237;50.106;20.014;2023-05-14T06:46:41;13.57;;;6.68;;
38455;SDS011;24237;50.106;20.014;2023-05-14T06:49:06;10.90;;;6.15;;
38455;SDS011;24237;50.106;20.014;2023-05-14T06:51:32;12.48;;;7.40;;
38455;SDS011;24237;50.106;20.014;2023-05-14T06:53:57;11.70;;;6.70;;
38455;SDS011;24237;50.106;20.014;2023-05-14T06:56:23;12.25;;;6.50;;
38455;SDS011;24237;50.106;20.014;2023-05-14T06:58:49;13.55;;;7.10;;
38455;SDS011;24237;50.106;20.014;2023-05-14T07:01:15;12.55;;;6.95;;
38455;SDS011;24237;50.106;20.014;2023-05-14T07:03:40;11.75;;;6.13;;
38455;SDS011;24237;50.106;20.014;2023-05-14T07:06:06;12.52;;;6.63;;
38455;SDS011;24237;50.106;20.014;2023-05-14T07:08:32;8.90;;;5.13;;
38455;SDS011;24237;50.106;20.014;2023-05-14T07:10:57;7.63;;;4.80;;
38455;SDS011;24237;50.106;20.014;2023-05-14T07:13:25;7.40;;;4.38;;
38455;SDS011;24237;50.106;20.014;2023-05-14T07:15:52;6.57;;;4.18;;
38455;SDS011;24237;50.106;20.014;2023-05-14T07:18:19;9.93;;;5.00;;
38455;SDS011;24237;50.106;20.014;2023-05-14T07:20:45;7.57;;;5.03;;
38455;SDS011;24237;50.106;20.014;2023-05-14T07:23:11;8.52;;;4.90;;
38455;SDS011;24237;50.106;20.014;2023-05-14T07:25:37;7.50;;;4.38;;
38455;SDS011;24237;50.106;20.014;2023-05-14T07:28:02;10.63;;;4.90;;
38455;SDS011;24237;50.106;20.014;2023-05-14T07:30:28;10.02;;;4.80;;
38455;SDS011;24237;50.106;20.014;2023-05-14T07:32:54;10.27;;;5.05;;
38455;SDS011;24237;50.106;20.014;2023-05-14T07:35:19;7.00;;;4.60;;
38455;SDS011;24237;50.106;20.014;2023-05-14T07:37:45;11.93;;;5.18;;
38455;SDS011;24237;50.106;20.014;2023-05-14T07:40:11;10.20;;;4.57;;
38455;SDS011;24237;50.106;20.014;2023-05-14T07:42:36;11.70;;;4.85;;
38455;SDS011;24237;50.106;20.014;2023-05-14T07:45:02;10.27;;;4.75;;
38455;SDS011;24237;50.106;20.014;2023-05-14T07:47:28;9.90;;;5.32;;
38455;SDS011;24237;50.106;20.014;2023-05-14T07:49:54;10.50;;;5.90;;
38455;SDS011;24237;50.106;20.014;2023-05-14T07:52:21;11.02;;;5.30;;
38455;SDS011;24237;50.106;20.014;2023-05-14T07:54:47;11.20;;;5.80;;
38455;SDS011;24237;50.106;20.014;2023-05-14T07:57:13;9.15;;;5.20;;
38455;SDS011;24237;50.106;20.014;2023-05-14T07:59:38;7.70;;;4.72;;
38455;SDS011;24237;50.106;20.014;2023-05-14T08:02:04;13.32;;;4.85;;
38455;SDS011;24237;50.106;20.014;2023-05-14T08:04:30;9.43;;;4.50;;
38455;SDS011;24237;50.106;20.014;2023-05-14T08:06:55;6.35;;;3.92;;
38455;SDS011;24237;50.106;20.014;2023-05-14T08:09:22;8.85;;;4.00;;
38455;SDS011;24237;50.106;20.014;2023-05-14T08:11:48;5.97;;;3.95;;
38455;SDS011;24237;50.106;20.014;2023-05-14T08:14:13;7.72;;;4.40;;
38455;SDS011;24237;50.106;20.014;2023-05-14T08:16:39;8.23;;;3.78;;
38455;SDS011;24237;50.106;20.014;2023-05-14T08:19:04;8.60;;;3.53;;
38455;SDS011;24237;50.106;20.014;2023-05-14T08:21:30;6.30;;;3.63;;
38455;SDS011;24237;50.106;20.014;2023-05-14T08:23:56;5.05;;;3.10;;
38455;SDS011;24237;50.106;20.014;2023-05-14T08:26:22;5.68;;;3.20;;
38455;SDS011;24237;50.106;20.014;2023-05-14T08:28:47;6.30;;;2.95;;
38455;SDS011;24237;50.106;20.014;2023-05-14T08:31:13;5.10;;;2.92;;
38455;SDS011;24237;50.106;20.014;2023-05-14T08:33:39;6.50;;;2.72;;
38455;SDS011;24237;50.106;20.014;2023-05-14T08:36:05;6.25;;;3.15;;
38455;SDS011;24237;50.106;20.014;2023-05-14T08:38:31;4.63;;;2.90;;
38455;SDS011;24237;50.106;20.014;2023-05-14T08:40:57;5.38;;;3.15;;
38455;SDS011;24237;50.106;20.014;2023-05-14T08:43:31;4.20;;;2.60;;
38455;SDS011;24237;50.106;20.014;2023-05-14T08:46:06;4.38;;;2.88;;
38455;SDS011;24237;50.106;20.014;2023-05-14T08:48:35;4.60;;;2.50;;
38455;SDS011;24237;50.106;20.014;2023-05-14T08:51:01;4.20;;;2.67;;
38455;SDS011;24237;50.106;20.014;2023-05-14T08:53:27;5.50;;;2.85;;
38455;SDS011;24237;50.106;20.014;2023-05-14T08:55:53;4.30;;;2.85;;
38455;SDS011;24237;50.106;20.014;2023-05-14T08:58:19;6.78;;;2.95;;
38455;SDS011;24237;50.106;20.014;2023-05-14T09:00:45;4.38;;;2.63;;
38455;SDS011;24237;50.106;20.014;2023-05-14T09:03:10;5.65;;;3.40;;
38455;SDS011;24237;50.106;20.014;2023-05-14T09:05:37;10.90;;;3.08;;
38455;SDS011;24237;50.106;20.014;2023-05-14T09:08:03;4.40;;;2.15;;
38455;SDS011;24237;50.106;20.014;2023-05-14T09:10:28;12.02;;;6.35;;
38455;SDS011;24237;50.106;20.014;2023-05-14T09:12:54;5.13;;;3.20;;
38455;SDS011;24237;50.106;20.014;2023-05-14T09:15:19;4.53;;;2.50;;
38455;SDS011;24237;50.106;20.014;2023-05-14T09:17:45;5.78;;;2.65;;
38455;SDS011;24237;50.106;20.014;2023-05-14T09:20:12;4.80;;;2.50;;
38455;SDS011;24237;50.106;20.014;2023-05-14T09:22:39;2.53;;;1.70;;
38455;SDS011;24237;50.106;20.014;2023-05-14T09:25:05;4.65;;;1.73;;
38455;SDS011;24237;50.106;20.014;2023-05-14T09:27:33;4.53;;;2.38;;
38455;SDS011;24237;50.106;20.014;2023-05-14T09:30:03;10.30;;;4.78;;
38455;SDS011;24237;50.106;20.014;2023-05-14T09:32:42;4.00;;;2.00;;
38455;SDS011;24237;50.106;20.014;2023-05-14T09:35:10;2.72;;;1.90;;
38455;SDS011;24237;50.106;20.014;2023-05-14T09:37:43;3.63;;;1.80;;
38455;SDS011;24237;50.106;20.014;2023-05-14T09:40:10;3.53;;;2.13;;
38455;SDS011;24237;50.106;20.014;2023-05-14T09:42:37;2.65;;;1.77;;
38455;SDS011;24237;50.106;20.014;2023-05-14T09:45:03;4.10;;;2.00;;
38455;SDS011;24237;50.106;20.014;2023-05-14T09:47:29;4.43;;;2.25;;
38455;SDS011;24237;50.106;20.014;2023-05-14T09:49:55;3.10;;;1.70;;
38455;SDS011;24237;50.106;20.014;2023-05-14T09:52:24;3.13;;;1.73;;
38455;SDS011;24237;50.106;20.014;2023-05-14T09:54:52;3.05;;;1.90;;
38455;SDS011;24237;50.106;20.014;2023-05-14T09:57:19;8.10;;;2.03;;
38455;SDS011;24237;50.106;20.014;2023-05-14T09:59:44;5.63;;;1.90;;
38455;SDS011;24237;50.106;20.014;2023-05-14T10:02:15;2.92;;;1.75;;
38455;SDS011;24237;50.106;20.014;2023-05-14T10:04:46;2.63;;;1.80;;
38455;SDS011;24237;50.106;20.014;2023-05-14T10:07:13;2.85;;;2.00;;
38455;SDS011;24237;50.106;20.014;2023-05-14T10:09:42;3.30;;;2.15;;
38455;SDS011;24237;50.106;20.014;2023-05-14T10:12:09;3.10;;;1.42;;
38455;SDS011;24237;50.106;20.014;2023-05-14T10:14:37;6.88;;;3.05;;
38455;SDS011;24237;50.106;20.014;2023-05-14T10:17:06;5.13;;;1.83;;
38455;SDS011;24237;50.106;20.014;2023-05-14T10:19:42;5.72;;;2.13;;
38455;SDS011;24237;50.106;20.014;2023-05-14T10:22:13;8.52;;;2.30;;
38455;SDS011;24237;50.106;20.014;2023-05-14T10:24:42;5.78;;;1.83;;
38455;SDS011;24237;50.106;20.014;2023-05-14T10:27:09;6.55;;;2.85;;
38455;SDS011;24237;50.106;20.014;2023-05-14T10:29:36;3.22;;;1.90;;
38455;SDS011;24237;50.106;20.014;2023-05-14T10:32:03;3.33;;;2.10;;
38455;SDS011;24237;50.106;20.014;2023-05-14T10:34:40;2.45;;;1.73;;
38455;SDS011;24237;50.106;20.014;2023-05-14T10:42:07;3.60;;;1.70;;
38455;SDS011;24237;50.106;20.014;2023-05-14T10:44:34;3.88;;;2.22;;
38455;SDS011;24237;50.106;20.014;2023-05-14T10:47:04;4.85;;;2.10;;
38455;SDS011;24237;50.106;20.014;2023-05-14T10:49:31;5.63;;;2.03;;
38455;SDS011;24237;50.106;20.014;2023-05-14T10:51:57;4.15;;;1.77;;
38455;SDS011;24237;50.106;20.014;2023-05-14T10:54:23;5.28;;;1.52;;
38455;SDS011;24237;50.106;20.014;2023-05-14T10:56:52;4.57;;;1.73;;
38455;SDS011;24237;50.106;20.014;2023-05-14T10:59:17;3.38;;;1.77;;
38455;SDS011;24237;50.106;20.014;2023-05-14T11:01:43;12.98;;;2.20;;
38455;SDS011;24237;50.106;20.014;2023-05-14T11:04:16;12.50;;;6.53;;
38455;SDS011;24237;50.106;20.014;2023-05-14T11:06:43;9.52;;;2.38;;
38455;SDS011;24237;50.106;20.014;2023-05-14T11:09:12;5.57;;;2.17;;
38455;SDS011;24237;50.106;20.014;2023-05-14T11:11:41;1.88;;;1.40;;
38455;SDS011;24237;50.106;20.014;2023-05-14T11:14:08;6.90;;;1.98;;
38455;SDS011;24237;50.106;20.014;2023-05-14T11:16:34;6.40;;;1.88;;
38455;SDS011;24237;50.106;20.014;2023-05-14T11:19:00;9.05;;;1.88;;
38455;SDS011;24237;50.106;20.014;2023-05-14T11:21:27;13.50;;;2.30;;
38455;SDS011;24237;50.106;20.014;2023-05-14T11:23:54;3.20;;;1.50;;
38455;SDS011;24237;50.106;20.014;2023-05-14T11:26:22;3.95;;;1.67;;
38455;SDS011;24237;50.106;20.014;2023-05-14T11:28:48;6.38;;;2.00;;
38455;SDS011;24237;50.106;20.014;2023-05-14T11:31:13;5.93;;;2.30;;
38455;SDS011;24237;50.106;20.014;2023-05-14T11:33:39;3.53;;;1.58;;
38455;SDS011;24237;50.106;20.014;2023-05-14T11:36:05;4.53;;;1.67;;
38455;SDS011;24237;50.106;20.014;2023-05-14T11:38:31;4.82;;;1.80;;
38455;SDS011;24237;50.106;20.014;2023-05-14T11:40:57;2.67;;;1.77;;
38455;SDS011;24237;50.106;20.014;2023-05-14T11:43:24;4.53;;;1.77;;
38455;SDS011;24237;50.106;20.014;2023-05-14T11:45:53;1.88;;;1.50;;
38455;SDS011;24237;50.106;20.014;2023-05-14T11:48:20;3.72;;;1.42;;
38455;SDS011;24237;50.106;20.014;2023-05-14T11:50:47;2.90;;;1.50;;
38455;SDS011;24237;50.106;20.014;2023-05-14T11:55:42;5.55;;;1.42;;
38455;SDS011;24237;50.106;20.014;2023-05-14T11:58:08;6.82;;;1.88;;
38455;SDS011;24237;50.106;20.014;2023-05-14T12:00:34;7.57;;;1.98;;
38455;SDS011;24237;50.106;20.014;2023-05-14T12:03:01;3.67;;;1.40;;
38455;SDS011;24237;50.106;20.014;2023-05-14T12:05:27;3.97;;;1.38;;
38455;SDS011;24237;50.106;20.014;2023-05-14T12:07:53;7.35;;;1.85;;
38455;SDS011;24237;50.106;20.014;2023-05-14T12:10:20;3.03;;;2.47;;
38455;SDS011;24237;50.106;20.014;2023-05-14T12:12:46;6.00;;;1.75;;
38455;SDS011;24237;50.106;20.014;2023-05-14T12:15:12;4.72;;;1.30;;
38455;SDS011;24237;50.106;20.014;2023-05-14T12:17:38;4.77;;;1.80;;
38455;SDS011;24237;50.106;20.014;2023-05-14T12:20:07;3.28;;;1.65;;
38455;SDS011;24237;50.106;20.014;2023-05-14T12:22:37;4.80;;;1.50;;
38455;SDS011;24237;50.106;20.014;2023-05-14T12:25:03;2.67;;;1.50;;
38455;SDS011;24237;50.106;20.014;2023-05-14T12:27:35;5.03;;;1.65;;
38455;SDS011;24237;50.106;20.014;2023-05-14T12:30:01;20.55;;;2.88;;
38455;SDS011;24237;50.106;20.014;2023-05-14T12:32:31;3.15;;;1.33;;
38455;SDS011;24237;50.106;20.014;2023-05-14T12:35:02;5.47;;;1.70;;
38455;SDS011;24237;50.106;20.014;2023-05-14T12:37:28;6.38;;;2.10;;
38455;SDS011;24237;50.106;20.014;2023-05-14T12:39:53;3.25;;;1.45;;
38455;SDS011;24237;50.106;20.014;2023-05-14T12:42:19;3.47;;;1.77;;
38455;SDS011;24237;50.106;20.014;2023-05-14T12:44:44;18.27;;;3.45;;
38455;SDS011;24237;50.106;20.014;2023-05-14T12:47:10;7.22;;;1.90;;
38455;SDS011;24237;50.106;20.014;2023-05-14T12:49:36;6.03;;;1.73;;
38455;SDS011;24237;50.106;20.014;2023-05-14T12:52:01;4.90;;;1.77;;
38455;SDS011;24237;50.106;20.014;2023-05-14T12:54:27;4.35;;;1.70;;
38455;SDS011;24237;50.106;20.014;2023-05-14T12:56:53;2.42;;;1.52;;
38455;SDS011;24237;50.106;20.014;2023-05-14T12:59:18;16.25;;;1.50;;
38455;SDS011;24237;50.106;20.014;2023-05-14T13:01:44;6.63;;;2.08;;
38455;SDS011;24237;50.106;20.014;2023-05-14T13:04:10;6.57;;;1.45;;
38455;SDS011;24237;50.106;20.014;2023-05-14T13:06:38;7.60;;;1.90;;
38455;SDS011;24237;50.106;20.014;2023-05-14T13:09:05;4.80;;;1.90;;
38455;SDS011;24237;50.106;20.014;2023-05-14T13:11:31;3.15;;;1.30;;
38455;SDS011;24237;50.106;20.014;2023-05-14T13:13:57;5.78;;;1.67;;
38455;SDS011;24237;50.106;20.014;2023-05-14T13:16:26;2.87;;;1.20;;
38455;SDS011;24237;50.106;20.014;2023-05-14T13:18:53;4.35;;;1.30;;
38455;SDS011;24237;50.106;20.014;2023-05-14T13:21:19;7.35;;;1.55;;
38455;SDS011;24237;50.106;20.014;2023-05-14T13:23:45;3.38;;;1.48;;
38455;SDS011;24237;50.106;20.014;2023-05-14T13:26:11;6.68;;;1.33;;
38455;SDS011;24237;50.106;20.014;2023-05-14T13:28:38;4.00;;;1.40;;
38455;SDS011;24237;50.106;20.014;2023-05-14T13:31:04;4.95;;;1.50;;
38455;SDS011;24237;50.106;20.014;2023-05-14T13:33:36;5.20;;;1.38;;
38455;SDS011;24237;50.106;20.014;2023-05-14T13:36:05;4.43;;;1.35;;
38455;SDS011;24237;50.106;20.014;2023-05-14T13:38:32;2.05;;;1.45;;
38455;SDS011;24237;50.106;20.014;2023-05-14T13:40:58;4.40;;;1.73;;
38455;SDS011;24237;50.106;20.014;2023-05-14T13:43:26;6.97;;;1.60;;
38455;SDS011;24237;50.106;20.014;2023-05-14T13:45:56;13.73;;;1.50;;
38455;SDS011;24237;50.106;20.014;2023-05-14T13:48:22;2.65;;;1.50;;
38455;SDS011;24237;50.106;20.014;2023-05-14T13:50:49;2.80;;;1.60;;
38455;SDS011;24237;50.106;20.014;2023-05-14T13:53:16;2.65;;;1.13;;
38455;SDS011;24237;50.106;20.014;2023-05-14T13:55:43;7.80;;;1.58;;
38455;SDS011;24237;50.106;20.014;2023-05-14T13:58:08;5.70;;;1.80;;
38455;SDS011;24237;50.106;20.014;2023-05-14T14:00:34;4.72;;;1.90;;
38455;SDS011;24237;50.106;20.014;2023-05-14T14:03:00;4.15;;;2.08;;
38455;SDS011;24237;50.106;20.014;2023-05-14T14:05:25;13.57;;;1.58;;
38455;SDS011;24237;50.106;20.014;2023-05-14T14:07:52;9.90;;;1.93;;
38455;SDS011;24237;50.106;20.014;2023-05-14T14:10:19;7.87;;;1.73;;
38455;SDS011;24237;50.106;20.014;2023-05-14T14:12:45;3.10;;;1.57;;
38455;SDS011;24237;50.106;20.014;2023-05-14T14:15:11;4.82;;;1.50;;
38455;SDS011;24237;50.106;20.014;2023-05-14T14:17:36;4.85;;;1.65;;
38455;SDS011;24237;50.106;20.014;2023-05-14T14:20:03;7.13;;;1.92;;
38455;SDS011;24237;50.106;20.014;2023-05-14T14:22:30;3.45;;;1.30;;
38455;SDS011;24237;50.106;20.014;2023-05-14T14:24:55;6.78;;;1.65;;
38455;SDS011;24237;50.106;20.014;2023-05-14T14:27:21;3.47;;;1.92;;
38455;SDS011;24237;50.106;20.014;2023-05-14T14:29:47;4.05;;;1.90;;
38455;SDS011;24237;50.106;20.014;2023-05-14T14:32:12;12.10;;;2.28;;
38455;SDS011;24237;50.106;20.014;2023-05-14T14:34:38;5.13;;;1.67;;
38455;SDS011;24237;50.106;20.014;2023-05-14T14:37:04;2.42;;;1.60;;
38455;SDS011;24237;50.106;20.014;2023-05-14T14:39:30;2.25;;;1.58;;